sensor_id;sensor_type;location;lat;lon;timestamp;P1;durP1;ratioP1;P2;durP2;ratioP2
20880;SDS011;10600;53.096;8.802;2023-04-28T00:00:19;37.38;;;20.27;;
20880;SDS011;10600;53.096;8.802;2023-04-28T00:01:20;39.17;;;20.85;;
20880;SDS011;10600;53.096;8.802;2023-04-28T00:02:20;39.05;;;21.08;;
20880;SDS011;10600;53.096;8.802;2023-04-28T00:03:21;38.55;;;20.45;;
20880;SDS011;10600;53.096;8.802;2023-04-28T00:04:22;42.85;;;20.17;;
20880;SDS011;10600;53.096;8.802;2023-04-28T00:05:22;37.95;;;20.85;;
20880;SDS011;10600;53.096;8.802;2023-04-28T00:06:24;40.40;;;21.35;;
20880;SDS011;10600;53.096;8.802;2023-04-28T00:07:24;41.88;;;21.75;;
20880;SDS011;10600;53.096;8.802;2023-04-28T00:08:25;37.03;;;19.38;;
20880;SDS011;10600;53.096;8.802;2023-04-28T00:09:26;37.75;;;19.60;;
20880;SDS011;10600;53.096;8.802;2023-04-28T00:10:27;42.03;;;20.98;;
20880;SDS011;10600;53.096;8.802;2023-04-28T00:11:27;37.20;;;20.80;;
20880;SDS011;10600;53.096;8.802;2023-04-28T00:12:28;43.38;;;22.10;;
20880;SDS011;10600;53.096;8.802;2023-04-28T00:13:29;42.05;;;20.83;;
20880;SDS011;10600;53.096;8.802;2023-04-28T00:14:29;38.25;;;20.77;;
20880;SDS011;10600;53.096;8.802;2023-04-28T00:15:30;37.67;;;20.42;;
20880;SDS011;10600;53.096;8.802;2023-04-28T00:16:30;40.42;;;21.35;;
20880;SDS011;10600;53.096;8.802;2023-04-28T00:17:31;40.17;;;21.27;;
20880;SDS011;10600;53.096;8.802;2023-04-28T00:18:35;38.53;;;21.63;;
20880;SDS011;10600;53.096;8.802;2023-04-28T00:19:35;43.17;;;21.70;;
20880;SDS011;10600;53.096;8.802;2023-04-28T00:20:37;40.45;;;20.35;;
20880;SDS011;10600;53.096;8.802;2023-04-28T00:21:38;39.72;;;20.70;;
20880;SDS011;10600;53.096;8.802;2023-04-28T00:22:38;39.05;;;21.35;;
20880;SDS011;10600;53.096;8.802;2023-04-28T00:23:39;36.28;;;20.33;;
20880;SDS011;10600;53.096;8.802;2023-04-28T00:24:40;41.95;;;22.05;;
20880;SDS011;10600;53.096;8.802;2023-04-28T00:25:41;35.65;;;19.90;;
20880;SDS011;10600;53.096;8.802;2023-04-28T00:26:41;37.88;;;20.77;;
20880;SDS011;10600;53.096;8.802;2023-04-28T00:27:42;41.13;;;20.35;;
20880;SDS011;10600;53.096;8.802;2023-04-28T00:28:43;38.38;;;21.23;;
20880;SDS011;10600;53.096;8.802;2023-04-28T00:29:43;40.90;;;21.65;;
20880;SDS011;10600;53.096;8.802;2023-04-28T00:30:44;43.50;;;21.52;;
20880;SDS011;10600;53.096;8.802;2023-04-28T00:31:46;38.15;;;20.60;;
20880;SDS011;10600;53.096;8.802;2023-04-28T00:32:46;39.83;;;20.60;;
20880;SDS011;10600;53.096;8.802;2023-04-28T00:33:47;46.95;;;21.38;;
20880;SDS011;10600;53.096;8.802;2023-04-28T00:34:48;41.38;;;21.15;;
20880;SDS011;10600;53.096;8.802;2023-04-28T00:35:48;42.58;;;21.35;;
20880;SDS011;10600;53.096;8.802;2023-04-28T00:36:49;40.10;;;20.27;;
20880;SDS011;10600;53.096;8.802;2023-04-28T00:37:50;38.03;;;20.20;;
20880;SDS011;10600;53.096;8.802;2023-04-28T00:38:50;40.03;;;21.60;;
20880;SDS011;10600;53.096;8.802;2023-04-28T00:39:55;42.03;;;21.55;;
20880;SDS011;10600;53.096;8.802;2023-04-28T00:40:56;39.20;;;20.85;;
20880;SDS011;10600;53.096;8.802;2023-04-28T00:41:57;38.22;;;20.33;;
20880;SDS011;10600;53.096;8.802;2023-04-28T00:42:58;38.08;;;20.05;;
20880;SDS011;10600;53.096;8.802;2023-04-28T00:43:58;38.00;;;21.42;;
20880;SDS011;10600;53.096;8.802;2023-04-28T00:44:59;41.05;;;21.05;;
20880;SDS011;10600;53.096;8.802;2023-04-28T00:46:04;40.00;;;20.15;;
20880;SDS011;10600;53.096;8.802;2023-04-28T00:47:05;42.30;;;21.60;;
20880;SDS011;10600;53.096;8.802;2023-04-28T00:48:09;37.78;;;20.75;;
20880;SDS011;10600;53.096;8.802;2023-04-28T00:49:11;39.90;;;21.15;;
20880;SDS011;10600;53.096;8.802;2023-04-28T00:50:11;40.10;;;21.02;;
20880;SDS011;10600;53.096;8.802;2023-04-28T00:51:12;42.08;;;22.25;;
20880;SDS011;10600;53.096;8.802;2023-04-28T00:52:13;40.00;;;22.52;;
20880;SDS011;10600;53.096;8.802;2023-04-28T00:53:14;39.55;;;20.55;;
20880;SDS011;10600;53.096;8.802;2023-04-28T00:54:14;39.67;;;20.27;;
20880;SDS011;10600;53.096;8.802;2023-04-28T00:55:15;39.58;;;20.60;;
20880;SDS011;10600;53.096;8.802;2023-04-28T00:56:16;41.08;;;21.70;;
20880;SDS011;10600;53.096;8.802;2023-04-28T00:57:17;41.85;;;21.63;;
20880;SDS011;10600;53.096;8.802;2023-04-28T00:58:18;39.63;;;21.52;;
20880;SDS011;10600;53.096;8.802;2023-04-28T00:59:18;42.72;;;21.08;;
20880;SDS011;10600;53.096;8.802;2023-04-28T01:00:19;44.40;;;21.70;;
20880;SDS011;10600;53.096;8.802;2023-04-28T01:01:20;43.85;;;21.98;;
20880;SDS011;10600;53.096;8.802;2023-04-28T01:02:20;46.67;;;21.83;;
20880;SDS011;10600;53.096;8.802;2023-04-28T01:03:21;38.72;;;20.63;;
20880;SDS011;10600;53.096;8.802;2023-04-28T01:04:22;40.90;;;21.17;;
20880;SDS011;10600;53.096;8.802;2023-04-28T01:05:26;46.65;;;22.50;;
20880;SDS011;10600;53.096;8.802;2023-04-28T01:06:28;40.17;;;21.27;;
20880;SDS011;10600;53.096;8.802;2023-04-28T01:07:29;43.33;;;23.38;;
20880;SDS011;10600;53.096;8.802;2023-04-28T01:08:30;42.38;;;22.95;;
20880;SDS011;10600;53.096;8.802;2023-04-28T01:09:32;40.05;;;21.15;;
20880;SDS011;10600;53.096;8.802;2023-04-28T01:10:32;41.10;;;21.73;;
20880;SDS011;10600;53.096;8.802;2023-04-28T01:11:33;38.15;;;21.15;;
20880;SDS011;10600;53.096;8.802;2023-04-28T01:12:33;42.75;;;22.45;;
20880;SDS011;10600;53.096;8.802;2023-04-28T01:13:34;41.35;;;21.80;;
20880;SDS011;10600;53.096;8.802;2023-04-28T01:14:35;38.10;;;20.55;;
20880;SDS011;10600;53.096;8.802;2023-04-28T01:15:36;41.72;;;21.63;;
20880;SDS011;10600;53.096;8.802;2023-04-28T01:16:37;40.17;;;21.33;;
20880;SDS011;10600;53.096;8.802;2023-04-28T01:17:38;44.78;;;22.23;;
20880;SDS011;10600;53.096;8.802;2023-04-28T01:18:40;43.30;;;23.45;;
20880;SDS011;10600;53.096;8.802;2023-04-28T01:19:44;40.60;;;22.10;;
20880;SDS011;10600;53.096;8.802;2023-04-28T01:20:45;41.72;;;21.85;;
20880;SDS011;10600;53.096;8.802;2023-04-28T01:21:45;42.83;;;22.17;;
20880;SDS011;10600;53.096;8.802;2023-04-28T01:22:46;43.95;;;21.67;;
20880;SDS011;10600;53.096;8.802;2023-04-28T01:23:50;39.80;;;21.73;;
20880;SDS011;10600;53.096;8.802;2023-04-28T01:24:51;44.97;;;22.30;;
20880;SDS011;10600;53.096;8.802;2023-04-28T01:25:51;42.85;;;22.17;;
20880;SDS011;10600;53.096;8.802;2023-04-28T01:26:52;39.60;;;21.15;;
20880;SDS011;10600;53.096;8.802;2023-04-28T01:27:52;43.85;;;21.52;;
20880;SDS011;10600;53.096;8.802;2023-04-28T01:28:53;45.00;;;21.00;;
20880;SDS011;10600;53.096;8.802;2023-04-28T01:29:54;42.08;;;22.00;;
20880;SDS011;10600;53.096;8.802;2023-04-28T01:30:54;43.45;;;21.65;;
20880;SDS011;10600;53.096;8.802;2023-04-28T01:31:55;39.60;;;20.83;;
20880;SDS011;10600;53.096;8.802;2023-04-28T01:32:56;41.90;;;21.73;;
20880;SDS011;10600;53.096;8.802;2023-04-28T01:33:57;38.70;;;20.20;;
20880;SDS011;10600;53.096;8.802;2023-04-28T01:34:58;38.78;;;20.00;;
20880;SDS011;10600;53.096;8.802;2023-04-28T01:35:58;40.83;;;21.13;;
20880;SDS011;10600;53.096;8.802;2023-04-28T01:36:59;44.08;;;22.45;;
20880;SDS011;10600;53.096;8.802;2023-04-28T01:38:00;36.92;;;19.65;;
20880;SDS011;10600;53.096;8.802;2023-04-28T01:39:01;40.53;;;19.88;;
20880;SDS011;10600;53.096;8.802;2023-04-28T01:40:01;35.88;;;19.63;;
20880;SDS011;10600;53.096;8.802;2023-04-28T01:41:03;40.88;;;21.33;;
20880;SDS011;10600;53.096;8.802;2023-04-28T01:42:03;41.38;;;20.23;;
20880;SDS011;10600;53.096;8.802;2023-04-28T01:43:04;40.78;;;20.58;;
20880;SDS011;10600;53.096;8.802;2023-04-28T01:44:05;35.25;;;20.55;;
20880;SDS011;10600;53.096;8.802;2023-04-28T01:45:06;42.17;;;21.77;;
20880;SDS011;10600;53.096;8.802;2023-04-28T01:46:08;40.75;;;20.52;;
20880;SDS011;10600;53.096;8.802;2023-04-28T01:47:09;40.67;;;21.08;;
20880;SDS011;10600;53.096;8.802;2023-04-28T01:48:09;38.33;;;21.05;;
20880;SDS011;10600;53.096;8.802;2023-04-28T01:49:10;41.53;;;21.85;;
20880;SDS011;10600;53.096;8.802;2023-04-28T01:50:10;35.92;;;19.63;;
20880;SDS011;10600;53.096;8.802;2023-04-28T01:51:11;37.65;;;20.08;;
20880;SDS011;10600;53.096;8.802;2023-04-28T01:52:12;39.38;;;20.60;;
20880;SDS011;10600;53.096;8.802;2023-04-28T01:53:12;40.40;;;20.60;;
20880;SDS011;10600;53.096;8.802;2023-04-28T01:54:13;39.85;;;19.90;;
20880;SDS011;10600;53.096;8.802;2023-04-28T01:55:14;35.42;;;19.73;;
20880;SDS011;10600;53.096;8.802;2023-04-28T01:56:14;39.38;;;19.83;;
20880;SDS011;10600;53.096;8.802;2023-04-28T01:57:15;36.40;;;20.45;;
20880;SDS011;10600;53.096;8.802;2023-04-28T01:58:16;35.45;;;19.70;;
20880;SDS011;10600;53.096;8.802;2023-04-28T01:59:17;35.28;;;19.20;;
20880;SDS011;10600;53.096;8.802;2023-04-28T02:00:19;38.00;;;19.15;;
20880;SDS011;10600;53.096;8.802;2023-04-28T02:01:20;39.38;;;20.67;;
20880;SDS011;10600;53.096;8.802;2023-04-28T02:02:20;38.72;;;19.80;;
20880;SDS011;10600;53.096;8.802;2023-04-28T02:03:22;35.85;;;18.00;;
20880;SDS011;10600;53.096;8.802;2023-04-28T02:04:23;34.00;;;18.63;;
20880;SDS011;10600;53.096;8.802;2023-04-28T02:05:24;35.42;;;19.25;;
20880;SDS011;10600;53.096;8.802;2023-04-28T02:06:25;37.00;;;19.23;;
20880;SDS011;10600;53.096;8.802;2023-04-28T02:07:26;36.33;;;19.92;;
20880;SDS011;10600;53.096;8.802;2023-04-28T02:08:27;34.95;;;18.25;;
20880;SDS011;10600;53.096;8.802;2023-04-28T02:09:28;37.33;;;19.50;;
20880;SDS011;10600;53.096;8.802;2023-04-28T02:10:28;30.88;;;18.40;;
20880;SDS011;10600;53.096;8.802;2023-04-28T02:11:29;34.22;;;18.02;;
20880;SDS011;10600;53.096;8.802;2023-04-28T02:12:30;31.88;;;18.10;;
20880;SDS011;10600;53.096;8.802;2023-04-28T02:13:30;35.92;;;18.63;;
20880;SDS011;10600;53.096;8.802;2023-04-28T02:14:31;33.50;;;18.20;;
20880;SDS011;10600;53.096;8.802;2023-04-28T02:15:31;35.95;;;18.15;;
20880;SDS011;10600;53.096;8.802;2023-04-28T02:16:32;29.02;;;16.95;;
20880;SDS011;10600;53.096;8.802;2023-04-28T02:17:33;34.58;;;17.92;;
20880;SDS011;10600;53.096;8.802;2023-04-28T02:18:33;37.70;;;18.83;;
20880;SDS011;10600;53.096;8.802;2023-04-28T02:19:35;33.72;;;17.60;;
20880;SDS011;10600;53.096;8.802;2023-04-28T02:20:37;32.67;;;16.25;;
20880;SDS011;10600;53.096;8.802;2023-04-28T02:21:38;34.53;;;16.77;;
20880;SDS011;10600;53.096;8.802;2023-04-28T02:22:40;34.13;;;17.90;;
20880;SDS011;10600;53.096;8.802;2023-04-28T02:23:41;33.42;;;17.15;;
20880;SDS011;10600;53.096;8.802;2023-04-28T02:24:42;30.00;;;16.25;;
20880;SDS011;10600;53.096;8.802;2023-04-28T02:25:42;30.48;;;16.42;;
20880;SDS011;10600;53.096;8.802;2023-04-28T02:26:43;29.15;;;16.92;;
20880;SDS011;10600;53.096;8.802;2023-04-28T02:27:43;27.38;;;16.10;;
20880;SDS011;10600;53.096;8.802;2023-04-28T02:28:45;26.00;;;16.80;;
20880;SDS011;10600;53.096;8.802;2023-04-28T02:29:45;32.05;;;17.05;;
20880;SDS011;10600;53.096;8.802;2023-04-28T02:30:46;27.30;;;16.55;;
20880;SDS011;10600;53.096;8.802;2023-04-28T02:31:47;32.55;;;15.73;;
20880;SDS011;10600;53.096;8.802;2023-04-28T02:32:47;31.20;;;17.30;;
20880;SDS011;10600;53.096;8.802;2023-04-28T02:33:48;28.95;;;16.48;;
20880;SDS011;10600;53.096;8.802;2023-04-28T02:34:55;33.58;;;16.88;;
20880;SDS011;10600;53.096;8.802;2023-04-28T02:35:59;31.73;;;16.05;;
20880;SDS011;10600;53.096;8.802;2023-04-28T02:37:00;27.67;;;16.52;;
20880;SDS011;10600;53.096;8.802;2023-04-28T02:38:01;28.40;;;15.48;;
20880;SDS011;10600;53.096;8.802;2023-04-28T02:39:02;28.85;;;15.55;;
20880;SDS011;10600;53.096;8.802;2023-04-28T02:40:03;31.90;;;16.10;;
20880;SDS011;10600;53.096;8.802;2023-04-28T02:41:04;29.60;;;16.10;;
20880;SDS011;10600;53.096;8.802;2023-04-28T02:42:08;31.48;;;16.45;;
20880;SDS011;10600;53.096;8.802;2023-04-28T02:43:08;29.33;;;15.80;;
20880;SDS011;10600;53.096;8.802;2023-04-28T02:44:09;27.13;;;15.73;;
20880;SDS011;10600;53.096;8.802;2023-04-28T02:45:09;28.77;;;16.13;;
20880;SDS011;10600;53.096;8.802;2023-04-28T02:46:10;29.33;;;16.27;;
20880;SDS011;10600;53.096;8.802;2023-04-28T02:47:11;28.77;;;16.08;;
20880;SDS011;10600;53.096;8.802;2023-04-28T02:48:12;30.90;;;15.45;;
20880;SDS011;10600;53.096;8.802;2023-04-28T02:49:12;28.50;;;16.20;;
20880;SDS011;10600;53.096;8.802;2023-04-28T02:50:13;28.33;;;16.27;;
20880;SDS011;10600;53.096;8.802;2023-04-28T02:51:14;29.30;;;16.70;;
20880;SDS011;10600;53.096;8.802;2023-04-28T02:52:14;28.45;;;14.88;;
20880;SDS011;10600;53.096;8.802;2023-04-28T02:53:15;26.20;;;15.32;;
20880;SDS011;10600;53.096;8.802;2023-04-28T02:54:16;27.35;;;16.05;;
20880;SDS011;10600;53.096;8.802;2023-04-28T02:55:26;30.98;;;16.27;;
20880;SDS011;10600;53.096;8.802;2023-04-28T02:56:26;31.27;;;15.35;;
20880;SDS011;10600;53.096;8.802;2023-04-28T02:57:29;27.83;;;15.52;;
20880;SDS011;10600;53.096;8.802;2023-04-28T02:58:29;27.70;;;15.25;;
20880;SDS011;10600;53.096;8.802;2023-04-28T02:59:30;27.80;;;15.93;;
20880;SDS011;10600;53.096;8.802;2023-04-28T03:00:31;26.67;;;14.73;;
20880;SDS011;10600;53.096;8.802;2023-04-28T03:01:32;25.25;;;14.68;;
20880;SDS011;10600;53.096;8.802;2023-04-28T03:02:32;30.15;;;16.27;;
20880;SDS011;10600;53.096;8.802;2023-04-28T03:03:33;24.25;;;14.68;;
20880;SDS011;10600;53.096;8.802;2023-04-28T03:04:33;26.35;;;14.90;;
20880;SDS011;10600;53.096;8.802;2023-04-28T03:05:34;30.58;;;15.35;;
20880;SDS011;10600;53.096;8.802;2023-04-28T03:06:35;27.13;;;14.18;;
20880;SDS011;10600;53.096;8.802;2023-04-28T03:07:36;25.80;;;15.13;;
20880;SDS011;10600;53.096;8.802;2023-04-28T03:08:36;29.70;;;14.60;;
20880;SDS011;10600;53.096;8.802;2023-04-28T03:09:37;26.27;;;15.02;;
20880;SDS011;10600;53.096;8.802;2023-04-28T03:10:38;25.98;;;14.43;;
20880;SDS011;10600;53.096;8.802;2023-04-28T03:11:38;32.50;;;15.55;;
20880;SDS011;10600;53.096;8.802;2023-04-28T03:12:39;26.13;;;15.07;;
20880;SDS011;10600;53.096;8.802;2023-04-28T03:13:40;25.85;;;14.30;;
20880;SDS011;10600;53.096;8.802;2023-04-28T03:14:40;24.55;;;14.38;;
20880;SDS011;10600;53.096;8.802;2023-04-28T03:15:41;26.98;;;15.50;;
20880;SDS011;10600;53.096;8.802;2023-04-28T03:16:42;24.52;;;14.10;;
20880;SDS011;10600;53.096;8.802;2023-04-28T03:17:43;28.40;;;15.82;;
20880;SDS011;10600;53.096;8.802;2023-04-28T03:18:43;25.77;;;15.38;;
20880;SDS011;10600;53.096;8.802;2023-04-28T03:19:44;29.35;;;16.05;;
20880;SDS011;10600;53.096;8.802;2023-04-28T03:20:44;28.08;;;14.80;;
20880;SDS011;10600;53.096;8.802;2023-04-28T03:21:45;28.05;;;14.35;;
20880;SDS011;10600;53.096;8.802;2023-04-28T03:22:47;24.92;;;14.13;;
20880;SDS011;10600;53.096;8.802;2023-04-28T03:23:47;25.42;;;14.85;;
20880;SDS011;10600;53.096;8.802;2023-04-28T03:24:48;29.88;;;16.08;;
20880;SDS011;10600;53.096;8.802;2023-04-28T03:25:48;26.35;;;15.13;;
20880;SDS011;10600;53.096;8.802;2023-04-28T03:26:49;24.58;;;13.70;;
20880;SDS011;10600;53.096;8.802;2023-04-28T03:27:50;23.88;;;14.65;;
20880;SDS011;10600;53.096;8.802;2023-04-28T03:28:51;26.63;;;14.00;;
20880;SDS011;10600;53.096;8.802;2023-04-28T03:29:52;30.45;;;15.35;;
20880;SDS011;10600;53.096;8.802;2023-04-28T03:30:52;28.17;;;14.43;;
20880;SDS011;10600;53.096;8.802;2023-04-28T03:31:53;24.38;;;14.32;;
20880;SDS011;10600;53.096;8.802;2023-04-28T03:32:54;25.85;;;14.80;;
20880;SDS011;10600;53.096;8.802;2023-04-28T03:33:54;27.05;;;15.05;;
20880;SDS011;10600;53.096;8.802;2023-04-28T03:34:55;23.15;;;14.10;;
20880;SDS011;10600;53.096;8.802;2023-04-28T03:35:56;26.38;;;14.20;;
20880;SDS011;10600;53.096;8.802;2023-04-28T03:36:56;24.25;;;14.80;;
20880;SDS011;10600;53.096;8.802;2023-04-28T03:37:57;26.15;;;13.55;;
20880;SDS011;10600;53.096;8.802;2023-04-28T03:38:58;23.15;;;13.45;;
20880;SDS011;10600;53.096;8.802;2023-04-28T03:39:58;26.27;;;14.52;;
20880;SDS011;10600;53.096;8.802;2023-04-28T03:40:59;22.70;;;13.63;;
20880;SDS011;10600;53.096;8.802;2023-04-28T03:42:00;25.35;;;14.32;;
20880;SDS011;10600;53.096;8.802;2023-04-28T03:43:01;27.30;;;14.13;;
20880;SDS011;10600;53.096;8.802;2023-04-28T03:44:01;25.73;;;14.13;;
20880;SDS011;10600;53.096;8.802;2023-04-28T03:45:02;21.92;;;13.43;;
20880;SDS011;10600;53.096;8.802;2023-04-28T03:46:03;26.20;;;16.15;;
20880;SDS011;10600;53.096;8.802;2023-04-28T03:47:04;22.98;;;13.07;;
20880;SDS011;10600;53.096;8.802;2023-04-28T03:48:05;22.38;;;14.02;;
20880;SDS011;10600;53.096;8.802;2023-04-28T03:49:06;26.48;;;13.32;;
20880;SDS011;10600;53.096;8.802;2023-04-28T03:50:07;26.35;;;14.13;;
20880;SDS011;10600;53.096;8.802;2023-04-28T03:51:08;24.75;;;13.70;;
20880;SDS011;10600;53.096;8.802;2023-04-28T03:52:08;36.60;;;15.50;;
20880;SDS011;10600;53.096;8.802;2023-04-28T03:53:09;36.80;;;15.02;;
20880;SDS011;10600;53.096;8.802;2023-04-28T03:54:10;23.27;;;13.45;;
20880;SDS011;10600;53.096;8.802;2023-04-28T03:55:11;24.02;;;13.52;;
20880;SDS011;10600;53.096;8.802;2023-04-28T03:56:12;22.70;;;13.02;;
20880;SDS011;10600;53.096;8.802;2023-04-28T03:57:13;23.30;;;12.85;;
20880;SDS011;10600;53.096;8.802;2023-04-28T03:58:13;22.13;;;12.90;;
20880;SDS011;10600;53.096;8.802;2023-04-28T03:59:14;22.45;;;12.23;;
20880;SDS011;10600;53.096;8.802;2023-04-28T04:00:15;23.27;;;13.52;;
20880;SDS011;10600;53.096;8.802;2023-04-28T04:01:16;24.58;;;13.45;;
20880;SDS011;10600;53.096;8.802;2023-04-28T04:02:16;22.80;;;12.15;;
20880;SDS011;10600;53.096;8.802;2023-04-28T04:03:17;19.10;;;11.63;;
20880;SDS011;10600;53.096;8.802;2023-04-28T04:04:20;23.08;;;12.13;;
20880;SDS011;10600;53.096;8.802;2023-04-28T04:05:21;20.00;;;12.50;;
20880;SDS011;10600;53.096;8.802;2023-04-28T04:06:21;21.08;;;12.00;;
20880;SDS011;10600;53.096;8.802;2023-04-28T04:07:22;21.98;;;13.18;;
20880;SDS011;10600;53.096;8.802;2023-04-28T04:08:23;18.25;;;11.73;;
20880;SDS011;10600;53.096;8.802;2023-04-28T04:09:24;25.33;;;11.15;;
20880;SDS011;10600;53.096;8.802;2023-04-28T04:10:25;17.05;;;11.40;;
20880;SDS011;10600;53.096;8.802;2023-04-28T04:11:26;18.92;;;12.13;;
20880;SDS011;10600;53.096;8.802;2023-04-28T04:12:27;26.17;;;12.43;;
20880;SDS011;10600;53.096;8.802;2023-04-28T04:13:28;19.02;;;11.40;;
20880;SDS011;10600;53.096;8.802;2023-04-28T04:14:28;15.32;;;10.65;;
20880;SDS011;10600;53.096;8.802;2023-04-28T04:15:29;20.60;;;12.07;;
20880;SDS011;10600;53.096;8.802;2023-04-28T04:16:29;21.80;;;12.02;;
20880;SDS011;10600;53.096;8.802;2023-04-28T04:17:30;17.63;;;11.30;;
20880;SDS011;10600;53.096;8.802;2023-04-28T04:18:31;18.35;;;10.43;;
20880;SDS011;10600;53.096;8.802;2023-04-28T04:19:31;18.40;;;10.48;;
20880;SDS011;10600;53.096;8.802;2023-04-28T04:20:32;17.77;;;10.63;;
20880;SDS011;10600;53.096;8.802;2023-04-28T04:21:33;20.10;;;10.80;;
20880;SDS011;10600;53.096;8.802;2023-04-28T04:22:33;18.85;;;10.52;;
20880;SDS011;10600;53.096;8.802;2023-04-28T04:23:34;20.10;;;11.10;;
20880;SDS011;10600;53.096;8.802;2023-04-28T04:24:35;15.75;;;9.80;;
20880;SDS011;10600;53.096;8.802;2023-04-28T04:25:35;18.00;;;10.68;;
20880;SDS011;10600;53.096;8.802;2023-04-28T04:26:36;21.73;;;11.77;;
20880;SDS011;10600;53.096;8.802;2023-04-28T04:27:36;15.30;;;10.38;;
20880;SDS011;10600;53.096;8.802;2023-04-28T04:28:37;15.93;;;10.40;;
20880;SDS011;10600;53.096;8.802;2023-04-28T04:29:38;17.08;;;10.10;;
20880;SDS011;10600;53.096;8.802;2023-04-28T04:30:39;16.90;;;10.82;;
20880;SDS011;10600;53.096;8.802;2023-04-28T04:31:39;20.30;;;11.23;;
20880;SDS011;10600;53.096;8.802;2023-04-28T04:32:40;19.80;;;10.40;;
20880;SDS011;10600;53.096;8.802;2023-04-28T04:33:41;14.65;;;9.82;;
20880;SDS011;10600;53.096;8.802;2023-04-28T04:34:41;15.43;;;10.07;;
20880;SDS011;10600;53.096;8.802;2023-04-28T04:35:43;16.83;;;10.63;;
20880;SDS011;10600;53.096;8.802;2023-04-28T04:36:45;17.02;;;10.52;;
20880;SDS011;10600;53.096;8.802;2023-04-28T04:37:45;17.58;;;10.52;;
20880;SDS011;10600;53.096;8.802;2023-04-28T04:38:49;20.65;;;9.88;;
20880;SDS011;10600;53.096;8.802;2023-04-28T04:39:50;16.25;;;10.27;;
20880;SDS011;10600;53.096;8.802;2023-04-28T04:40:50;15.65;;;9.70;;
20880;SDS011;10600;53.096;8.802;2023-04-28T04:41:51;17.33;;;10.63;;
20880;SDS011;10600;53.096;8.802;2023-04-28T04:42:52;13.80;;;9.77;;
20880;SDS011;10600;53.096;8.802;2023-04-28T04:43:53;21.63;;;10.32;;
20880;SDS011;10600;53.096;8.802;2023-04-28T04:44:53;15.05;;;9.85;;
20880;SDS011;10600;53.096;8.802;2023-04-28T04:45:54;16.42;;;9.77;;
20880;SDS011;10600;53.096;8.802;2023-04-28T04:46:55;16.17;;;9.07;;
20880;SDS011;10600;53.096;8.802;2023-04-28T04:47:55;16.20;;;10.35;;
20880;SDS011;10600;53.096;8.802;2023-04-28T04:48:57;21.30;;;10.60;;
20880;SDS011;10600;53.096;8.802;2023-04-28T04:49:57;16.17;;;10.07;;
20880;SDS011;10600;53.096;8.802;2023-04-28T04:50:58;14.80;;;9.40;;
20880;SDS011;10600;53.096;8.802;2023-04-28T04:51:58;16.88;;;9.43;;
20880;SDS011;10600;53.096;8.802;2023-04-28T04:53:00;14.43;;;9.00;;
20880;SDS011;10600;53.096;8.802;2023-04-28T04:54:01;15.18;;;9.15;;
20880;SDS011;10600;53.096;8.802;2023-04-28T04:55:01;15.15;;;8.77;;
20880;SDS011;10600;53.096;8.802;2023-04-28T04:56:02;14.55;;;8.45;;
20880;SDS011;10600;53.096;8.802;2023-04-28T04:57:03;17.15;;;8.48;;
20880;SDS011;10600;53.096;8.802;2023-04-28T04:58:04;16.70;;;9.05;;
20880;SDS011;10600;53.096;8.802;2023-04-28T04:59:05;13.52;;;9.05;;
20880;SDS011;10600;53.096;8.802;2023-04-28T05:00:06;13.57;;;9.07;;
20880;SDS011;10600;53.096;8.802;2023-04-28T05:01:08;16.42;;;9.15;;
20880;SDS011;10600;53.096;8.802;2023-04-28T05:02:09;14.52;;;8.80;;
20880;SDS011;10600;53.096;8.802;2023-04-28T05:03:10;15.85;;;9.18;;
20880;SDS011;10600;53.096;8.802;2023-04-28T05:04:11;15.77;;;9.07;;
20880;SDS011;10600;53.096;8.802;2023-04-28T05:05:11;17.33;;;10.07;;
20880;SDS011;10600;53.096;8.802;2023-04-28T05:06:12;13.52;;;8.82;;
20880;SDS011;10600;53.096;8.802;2023-04-28T05:07:13;14.40;;;8.57;;
20880;SDS011;10600;53.096;8.802;2023-04-28T05:08:13;13.88;;;8.38;;
20880;SDS011;10600;53.096;8.802;2023-04-28T05:09:14;13.45;;;8.02;;
20880;SDS011;10600;53.096;8.802;2023-04-28T05:10:14;15.85;;;9.40;;
20880;SDS011;10600;53.096;8.802;2023-04-28T05:11:15;16.08;;;8.23;;
20880;SDS011;10600;53.096;8.802;2023-04-28T05:12:16;13.40;;;8.57;;
20880;SDS011;10600;53.096;8.802;2023-04-28T05:13:16;14.65;;;7.80;;
20880;SDS011;10600;53.096;8.802;2023-04-28T05:14:17;16.27;;;8.23;;
20880;SDS011;10600;53.096;8.802;2023-04-28T05:15:18;12.52;;;8.00;;
20880;SDS011;10600;53.096;8.802;2023-04-28T05:16:18;12.63;;;7.68;;
20880;SDS011;10600;53.096;8.802;2023-04-28T05:17:19;14.00;;;8.88;;
20880;SDS011;10600;53.096;8.802;2023-04-28T05:18:20;10.95;;;7.88;;
20880;SDS011;10600;53.096;8.802;2023-04-28T05:19:21;14.65;;;8.60;;
20880;SDS011;10600;53.096;8.802;2023-04-28T05:20:23;16.75;;;8.70;;
20880;SDS011;10600;53.096;8.802;2023-04-28T05:21:23;11.75;;;7.30;;
20880;SDS011;10600;53.096;8.802;2023-04-28T05:22:24;14.32;;;8.52;;
20880;SDS011;10600;53.096;8.802;2023-04-28T05:23:25;12.02;;;8.18;;
20880;SDS011;10600;53.096;8.802;2023-04-28T05:24:26;12.73;;;7.47;;
20880;SDS011;10600;53.096;8.802;2023-04-28T05:25:27;11.73;;;7.60;;
20880;SDS011;10600;53.096;8.802;2023-04-28T05:26:27;10.35;;;7.47;;
20880;SDS011;10600;53.096;8.802;2023-04-28T05:27:28;11.98;;;7.47;;
20880;SDS011;10600;53.096;8.802;2023-04-28T05:28:29;11.90;;;7.10;;
20880;SDS011;10600;53.096;8.802;2023-04-28T05:29:30;12.18;;;7.63;;
20880;SDS011;10600;53.096;8.802;2023-04-28T05:30:31;11.88;;;7.20;;
20880;SDS011;10600;53.096;8.802;2023-04-28T05:31:32;13.48;;;7.68;;
20880;SDS011;10600;53.096;8.802;2023-04-28T05:32:33;14.50;;;8.13;;
20880;SDS011;10600;53.096;8.802;2023-04-28T05:33:34;10.88;;;7.50;;
20880;SDS011;10600;53.096;8.802;2023-04-28T05:34:35;17.65;;;8.30;;
20880;SDS011;10600;53.096;8.802;2023-04-28T05:35:35;11.95;;;7.35;;
20880;SDS011;10600;53.096;8.802;2023-04-28T05:36:36;13.45;;;8.32;;
20880;SDS011;10600;53.096;8.802;2023-04-28T05:37:37;12.45;;;7.45;;
20880;SDS011;10600;53.096;8.802;2023-04-28T05:38:37;13.57;;;8.32;;
20880;SDS011;10600;53.096;8.802;2023-04-28T05:39:38;15.30;;;9.38;;
20880;SDS011;10600;53.096;8.802;2023-04-28T05:40:39;16.42;;;9.00;;
20880;SDS011;10600;53.096;8.802;2023-04-28T05:41:39;12.00;;;8.27;;
20880;SDS011;10600;53.096;8.802;2023-04-28T05:42:40;14.70;;;8.70;;
20880;SDS011;10600;53.096;8.802;2023-04-28T05:43:42;13.18;;;7.07;;
20880;SDS011;10600;53.096;8.802;2023-04-28T05:44:42;16.33;;;8.55;;
20880;SDS011;10600;53.096;8.802;2023-04-28T05:45:43;11.40;;;7.25;;
20880;SDS011;10600;53.096;8.802;2023-04-28T05:46:44;12.55;;;7.63;;
20880;SDS011;10600;53.096;8.802;2023-04-28T05:47:44;11.60;;;7.75;;
20880;SDS011;10600;53.096;8.802;2023-04-28T05:48:45;13.55;;;7.78;;
20880;SDS011;10600;53.096;8.802;2023-04-28T05:49:46;13.10;;;7.97;;
20880;SDS011;10600;53.096;8.802;2023-04-28T05:50:46;12.95;;;7.00;;
20880;SDS011;10600;53.096;8.802;2023-04-28T05:51:47;9.82;;;6.90;;
20880;SDS011;10600;53.096;8.802;2023-04-28T05:52:48;12.52;;;8.60;;
20880;SDS011;10600;53.096;8.802;2023-04-28T05:53:48;13.15;;;7.53;;
20880;SDS011;10600;53.096;8.802;2023-04-28T05:54:49;12.70;;;8.48;;
20880;SDS011;10600;53.096;8.802;2023-04-28T05:55:50;10.05;;;7.60;;
20880;SDS011;10600;53.096;8.802;2023-04-28T05:56:51;13.73;;;8.18;;